sensor_id;sensor_type;location;lat;lon;timestamp;temperature;humidity
39427;DHT22;25938;48.470;1.486;2022-08-25T00:01:10;25.40;62.10
39427;DHT22;25938;48.470;1.486;2022-08-25T00:03:36;25.40;62.10
39427;DHT22;25938;48.470;1.486;2022-08-25T00:06:04;25.30;61.90
39427;DHT22;25938;48.470;1.486;2022-08-25T00:08:30;25.40;62.20
39427;DHT22;25938;48.470;1.486;2022-08-25T00:11:00;25.40;62.20
39427;DHT22;25938;48.470;1.486;2022-08-25T00:13:27;25.40;62.40
39427;DHT22;25938;48.470;1.486;2022-08-25T00:15:53;25.40;62.40
39427;DHT22;25938;48.470;1.486;2022-08-25T00:18:19;25.40;62.10
39427;DHT22;25938;48.470;1.486;2022-08-25T00:20:44;25.40;61.90
39427;DHT22;25938;48.470;1.486;2022-08-25T00:23:10;25.30;61.90
39427;DHT22;25938;48.470;1.486;2022-08-25T00:25:36;25.30;61.90
39427;DHT22;25938;48.470;1.486;2022-08-25T00:28:02;25.30;61.80
39427;DHT22;25938;48.470;1.486;2022-08-25T00:30:27;25.30;61.80
39427;DHT22;25938;48.470;1.486;2022-08-25T00:32:53;25.30;61.80
39427;DHT22;25938;48.470;1.486;2022-08-25T00:35:18;25.30;61.90
39427;DHT22;25938;48.470;1.486;2022-08-25T00:37:44;25.30;62.10
39427;DHT22;25938;48.470;1.486;2022-08-25T00:40:10;25.30;62.20
39427;DHT22;25938;48.470;1.486;2022-08-25T00:42:36;25.30;62.20
39427;DHT22;25938;48.470;1.486;2022-08-25T00:45:05;25.30;62.20
39427;DHT22;25938;48.470;1.486;2022-08-25T00:47:30;25.30;62.20
39427;DHT22;25938;48.470;1.486;2022-08-25T00:49:59;25.30;62.10
39427;DHT22;25938;48.470;1.486;2022-08-25T00:52:33;25.30;62.00
39427;DHT22;25938;48.470;1.486;2022-08-25T00:55:45;25.30;62.10
39427;DHT22;25938;48.470;1.486;2022-08-25T00:57:59;25.30;62.20
39427;DHT22;25938;48.470;1.486;2022-08-25T01:00:35;25.30;62.20
39427;DHT22;25938;48.470;1.486;2022-08-25T01:03:01;25.30;62.30
39427;DHT22;25938;48.470;1.486;2022-08-25T01:05:27;25.20;62.20
39427;DHT22;25938;48.470;1.486;2022-08-25T01:07:54;25.20;62.20
39427;DHT22;25938;48.470;1.486;2022-08-25T01:10:21;25.20;62.20
39427;DHT22;25938;48.470;1.486;2022-08-25T01:12:47;25.20;62.20
39427;DHT22;25938;48.470;1.486;2022-08-25T01:15:14;25.20;62.20
39427;DHT22;25938;48.470;1.486;2022-08-25T01:17:51;25.20;62.20
39427;DHT22;25938;48.470;1.486;2022-08-25T01:20:20;25.20;62.20
39427;DHT22;25938;48.470;1.486;2022-08-25T01:22:47;25.20;62.20
39427;DHT22;25938;48.470;1.486;2022-08-25T01:26:18;25.20;61.90
39427;DHT22;25938;48.470;1.486;2022-08-25T01:28:11;25.20;61.80
39427;DHT22;25938;48.470;1.486;2022-08-25T01:30:37;25.20;61.80
39427;DHT22;25938;48.470;1.486;2022-08-25T01:33:08;25.20;61.90
39427;DHT22;25938;48.470;1.486;2022-08-25T01:35:34;25.20;61.70
39427;DHT22;25938;48.470;1.486;2022-08-25T01:38:01;25.20;61.60
39427;DHT22;25938;48.470;1.486;2022-08-25T01:40:27;25.20;61.70
39427;DHT22;25938;48.470;1.486;2022-08-25T01:45:36;25.20;61.60
39427;DHT22;25938;48.470;1.486;2022-08-25T01:48:03;25.20;61.40
39427;DHT22;25938;48.470;1.486;2022-08-25T01:50:30;25.20;61.40
39427;DHT22;25938;48.470;1.486;2022-08-25T01:53:29;25.20;61.30
39427;DHT22;25938;48.470;1.486;2022-08-25T01:55:47;25.20;61.40
39427;DHT22;25938;48.470;1.486;2022-08-25T01:58:26;25.20;61.40
39427;DHT22;25938;48.470;1.486;2022-08-25T02:00:53;25.20;61.40
39427;DHT22;25938;48.470;1.486;2022-08-25T02:03:21;25.10;61.40
39427;DHT22;25938;48.470;1.486;2022-08-25T02:05:47;25.10;61.50
39427;DHT22;25938;48.470;1.486;2022-08-25T02:08:12;25.10;61.50
39427;DHT22;25938;48.470;1.486;2022-08-25T02:10:39;25.10;61.50
39427;DHT22;25938;48.470;1.486;2022-08-25T02:13:06;25.10;61.30
39427;DHT22;25938;48.470;1.486;2022-08-25T02:15:32;25.10;61.20
39427;DHT22;25938;48.470;1.486;2022-08-25T02:17:58;25.10;61.10
39427;DHT22;25938;48.470;1.486;2022-08-25T02:20:24;25.10;61.20
39427;DHT22;25938;48.470;1.486;2022-08-25T02:22:50;25.00;61.10
39427;DHT22;25938;48.470;1.486;2022-08-25T02:25:17;25.10;61.10
39427;DHT22;25938;48.470;1.486;2022-08-25T02:27:44;25.10;61.00
39427;DHT22;25938;48.470;1.486;2022-08-25T02:30:11;25.10;60.90
39427;DHT22;25938;48.470;1.486;2022-08-25T02:32:38;25.10;61.00
39427;DHT22;25938;48.470;1.486;2022-08-25T02:35:04;25.00;60.90
39427;DHT22;25938;48.470;1.486;2022-08-25T02:37:30;25.10;60.80
39427;DHT22;25938;48.470;1.486;2022-08-25T02:39:56;25.10;60.60
39427;DHT22;25938;48.470;1.486;2022-08-25T02:42:22;25.10;60.50
39427;DHT22;25938;48.470;1.486;2022-08-25T02:44:49;25.00;60.20
39427;DHT22;25938;48.470;1.486;2022-08-25T02:47:15;25.00;60.20
39427;DHT22;25938;48.470;1.486;2022-08-25T02:49:41;25.00;60.10
39427;DHT22;25938;48.470;1.486;2022-08-25T02:52:07;25.00;60.10
39427;DHT22;25938;48.470;1.486;2022-08-25T02:54:33;25.00;60.10
39427;DHT22;25938;48.470;1.486;2022-08-25T02:56:59;25.00;60.00
39427;DHT22;25938;48.470;1.486;2022-08-25T02:59:25;25.00;60.00
39427;DHT22;25938;48.470;1.486;2022-08-25T03:01:51;25.00;59.80
39427;DHT22;25938;48.470;1.486;2022-08-25T03:04:17;25.00;59.80
39427;DHT22;25938;48.470;1.486;2022-08-25T03:06:43;25.00;59.80
39427;DHT22;25938;48.470;1.486;2022-08-25T03:09:08;25.00;59.70
39427;DHT22;25938;48.470;1.486;2022-08-25T03:11:34;25.00;59.60
39427;DHT22;25938;48.470;1.486;2022-08-25T03:14:01;25.00;59.60
39427;DHT22;25938;48.470;1.486;2022-08-25T03:16:26;25.00;59.60
39427;DHT22;25938;48.470;1.486;2022-08-25T03:18:52;24.90;59.70
39427;DHT22;25938;48.470;1.486;2022-08-25T03:21:18;24.90;59.60
39427;DHT22;25938;48.470;1.486;2022-08-25T03:23:44;25.00;59.50
39427;DHT22;25938;48.470;1.486;2022-08-25T03:26:09;25.00;59.40
39427;DHT22;25938;48.470;1.486;2022-08-25T03:28:54;25.00;59.40
39427;DHT22;25938;48.470;1.486;2022-08-25T03:31:24;24.90;59.30
39427;DHT22;25938;48.470;1.486;2022-08-25T03:33:53;24.90;59.30
39427;DHT22;25938;48.470;1.486;2022-08-25T03:36:19;24.90;59.40
39427;DHT22;25938;48.470;1.486;2022-08-25T03:38:45;24.90;59.30
39427;DHT22;25938;48.470;1.486;2022-08-25T03:41:15;24.90;59.30
39427;DHT22;25938;48.470;1.486;2022-08-25T03:43:41;24.90;59.20
39427;DHT22;25938;48.470;1.486;2022-08-25T03:46:07;24.90;59.10
39427;DHT22;25938;48.470;1.486;2022-08-25T03:48:33;24.90;59.10
39427;DHT22;25938;48.470;1.486;2022-08-25T03:50:58;24.90;59.20
39427;DHT22;25938;48.470;1.486;2022-08-25T03:53:24;24.90;59.30
39427;DHT22;25938;48.470;1.486;2022-08-25T03:55:49;24.90;59.30
39427;DHT22;25938;48.470;1.486;2022-08-25T03:58:15;24.90;59.30
39427;DHT22;25938;48.470;1.486;2022-08-25T04:00:42;24.90;59.30
39427;DHT22;25938;48.470;1.486;2022-08-25T04:03:09;24.90;59.40
39427;DHT22;25938;48.470;1.486;2022-08-25T04:05:34;24.90;59.40
39427;DHT22;25938;48.470;1.486;2022-08-25T04:08:00;24.90;59.30
39427;DHT22;25938;48.470;1.486;2022-08-25T04:10:26;24.90;59.30
39427;DHT22;25938;48.470;1.486;2022-08-25T04:12:51;24.90;59.40
39427;DHT22;25938;48.470;1.486;2022-08-25T04:15:17;24.90;59.50
39427;DHT22;25938;48.470;1.486;2022-08-25T04:17:43;24.90;59.50
39427;DHT22;25938;48.470;1.486;2022-08-25T04:20:10;24.90;59.50
39427;DHT22;25938;48.470;1.486;2022-08-25T04:22:36;24.90;59.50
39427;DHT22;25938;48.470;1.486;2022-08-25T04:25:03;24.90;59.50
39427;DHT22;25938;48.470;1.486;2022-08-25T04:27:28;24.80;59.30
39427;DHT22;25938;48.470;1.486;2022-08-25T04:29:54;24.80;59.30
39427;DHT22;25938;48.470;1.486;2022-08-25T04:32:20;24.90;59.50
39427;DHT22;25938;48.470;1.486;2022-08-25T04:34:45;24.80;59.40
39427;DHT22;25938;48.470;1.486;2022-08-25T04:37:11;24.80;60.00
39427;DHT22;25938;48.470;1.486;2022-08-25T04:39:36;24.80;59.30
39427;DHT22;25938;48.470;1.486;2022-08-25T04:42:04;24.80;59.30
39427;DHT22;25938;48.470;1.486;2022-08-25T04:44:30;24.80;59.40
39427;DHT22;25938;48.470;1.486;2022-08-25T04:46:56;24.80;59.50
39427;DHT22;25938;48.470;1.486;2022-08-25T04:49:22;24.80;59.60
39427;DHT22;25938;48.470;1.486;2022-08-25T04:51:47;24.80;59.50
39427;DHT22;25938;48.470;1.486;2022-08-25T04:54:15;24.80;59.50
39427;DHT22;25938;48.470;1.486;2022-08-25T04:56:46;24.80;59.50
39427;DHT22;25938;48.470;1.486;2022-08-25T04:59:15;24.80;59.60
39427;DHT22;25938;48.470;1.486;2022-08-25T05:01:42;24.80;59.40
39427;DHT22;25938;48.470;1.486;2022-08-25T05:04:11;24.80;59.40
39427;DHT22;25938;48.470;1.486;2022-08-25T05:06:38;24.80;59.30
39427;DHT22;25938;48.470;1.486;2022-08-25T05:09:04;24.70;59.20
39427;DHT22;25938;48.470;1.486;2022-08-25T05:11:30;24.70;59.20
39427;DHT22;25938;48.470;1.486;2022-08-25T05:13:56;24.70;59.20
39427;DHT22;25938;48.470;1.486;2022-08-25T05:16:24;24.70;59.20
39427;DHT22;25938;48.470;1.486;2022-08-25T05:18:51;24.70;59.20
39427;DHT22;25938;48.470;1.486;2022-08-25T05:21:23;24.70;59.30
39427;DHT22;25938;48.470;1.486;2022-08-25T05:23:49;24.70;59.40
39427;DHT22;25938;48.470;1.486;2022-08-25T05:26:20;24.70;59.60
39427;DHT22;25938;48.470;1.486;2022-08-25T05:28:48;24.70;59.70
39427;DHT22;25938;48.470;1.486;2022-08-25T05:31:14;24.70;59.90
39427;DHT22;25938;48.470;1.486;2022-08-25T05:33:41;24.70;60.00
39427;DHT22;25938;48.470;1.486;2022-08-25T05:36:08;24.70;60.00
39427;DHT22;25938;48.470;1.486;2022-08-25T05:38:35;24.60;60.00
39427;DHT22;25938;48.470;1.486;2022-08-25T05:41:07;24.70;60.00
39427;DHT22;25938;48.470;1.486;2022-08-25T05:43:36;24.70;60.10
39427;DHT22;25938;48.470;1.486;2022-08-25T05:46:02;24.70;60.00
39427;DHT22;25938;48.470;1.486;2022-08-25T05:48:27;24.70;60.00
39427;DHT22;25938;48.470;1.486;2022-08-25T05:50:58;24.60;60.00
39427;DHT22;25938;48.470;1.486;2022-08-25T05:53:25;24.70;59.90
39427;DHT22;25938;48.470;1.486;2022-08-25T05:55:52;24.60;59.90
39427;DHT22;25938;48.470;1.486;2022-08-25T05:58:19;24.60;59.90
39427;DHT22;25938;48.470;1.486;2022-08-25T06:00:45;24.60;60.00
39427;DHT22;25938;48.470;1.486;2022-08-25T06:03:10;24.60;60.00
39427;DHT22;25938;48.470;1.486;2022-08-25T06:05:36;24.60;60.00
39427;DHT22;25938;48.470;1.486;2022-08-25T06:08:02;24.60;60.00
39427;DHT22;25938;48.470;1.486;2022-08-25T06:10:28;24.60;60.20
39427;DHT22;25938;48.470;1.486;2022-08-25T06:12:54;24.60;60.30
39427;DHT22;25938;48.470;1.486;2022-08-25T06:15:22;24.60;60.40
39427;DHT22;25938;48.470;1.486;2022-08-25T06:17:48;24.60;60.50
39427;DHT22;25938;48.470;1.486;2022-08-25T06:20:25;24.60;60.60
39427;DHT22;25938;48.470;1.486;2022-08-25T06:22:52;24.60;60.80
39427;DHT22;25938;48.470;1.486;2022-08-25T06:25:21;24.60;60.90
39427;DHT22;25938;48.470;1.486;2022-08-25T06:27:47;24.60;61.00
39427;DHT22;25938;48.470;1.486;2022-08-25T06:30:15;24.60;61.20
39427;DHT22;25938;48.470;1.486;2022-08-25T06:32:42;24.60;61.30
39427;DHT22;25938;48.470;1.486;2022-08-25T06:35:11;24.60;61.40
39427;DHT22;25938;48.470;1.486;2022-08-25T06:37:37;24.60;61.60
39427;DHT22;25938;48.470;1.486;2022-08-25T06:40:04;24.60;62.30
39427;DHT22;25938;48.470;1.486;2022-08-25T06:42:31;24.60;61.70
39427;DHT22;25938;48.470;1.486;2022-08-25T06:44:56;24.60;61.70
39427;DHT22;25938;48.470;1.486;2022-08-25T06:47:22;24.60;61.80
39427;DHT22;25938;48.470;1.486;2022-08-25T06:49:47;24.60;61.80
39427;DHT22;25938;48.470;1.486;2022-08-25T06:52:14;24.60;61.50
39427;DHT22;25938;48.470;1.486;2022-08-25T06:54:40;24.60;61.40
39427;DHT22;25938;48.470;1.486;2022-08-25T06:57:07;24.70;61.20
39427;DHT22;25938;48.470;1.486;2022-08-25T06:59:33;24.70;61.00
39427;DHT22;25938;48.470;1.486;2022-08-25T07:02:00;24.70;60.90
39427;DHT22;25938;48.470;1.486;2022-08-25T07:04:26;24.70;60.80
39427;DHT22;25938;48.470;1.486;2022-08-25T07:06:51;24.70;60.80
39427;DHT22;25938;48.470;1.486;2022-08-25T07:09:17;24.70;60.90
39427;DHT22;25938;48.470;1.486;2022-08-25T07:11:43;24.70;60.80
39427;DHT22;25938;48.470;1.486;2022-08-25T07:14:11;24.70;60.80
39427;DHT22;25938;48.470;1.486;2022-08-25T07:16:38;24.70;60.60
39427;DHT22;25938;48.470;1.486;2022-08-25T07:19:05;24.70;60.50
39427;DHT22;25938;48.470;1.486;2022-08-25T07:21:32;24.70;60.60
39427;DHT22;25938;48.470;1.486;2022-08-25T07:23:59;24.70;60.70
39427;DHT22;25938;48.470;1.486;2022-08-25T07:26:29;24.70;60.80
39427;DHT22;25938;48.470;1.486;2022-08-25T07:28:55;24.70;60.80
39427;DHT22;25938;48.470;1.486;2022-08-25T07:31:21;24.70;60.90
39427;DHT22;25938;48.470;1.486;2022-08-25T07:33:47;24.70;60.80
39427;DHT22;25938;48.470;1.486;2022-08-25T07:36:32;24.70;60.90
39427;DHT22;25938;48.470;1.486;2022-08-25T07:38:58;24.80;61.20
39427;DHT22;25938;48.470;1.486;2022-08-25T07:41:25;24.70;61.40
39427;DHT22;25938;48.470;1.486;2022-08-25T07:43:51;24.70;61.40
39427;DHT22;25938;48.470;1.486;2022-08-25T07:46:17;24.70;61.50
39427;DHT22;25938;48.470;1.486;2022-08-25T07:48:43;24.80;61.70
39427;DHT22;25938;48.470;1.486;2022-08-25T07:51:10;24.80;62.70
39427;DHT22;25938;48.470;1.486;2022-08-25T07:53:37;24.80;63.20
39427;DHT22;25938;48.470;1.486;2022-08-25T07:56:09;24.80;63.30
39427;DHT22;25938;48.470;1.486;2022-08-25T07:58:35;24.80;63.60
39427;DHT22;25938;48.470;1.486;2022-08-25T08:01:01;24.80;63.40
39427;DHT22;25938;48.470;1.486;2022-08-25T08:03:27;24.70;63.30
39427;DHT22;25938;48.470;1.486;2022-08-25T08:05:54;24.80;63.20
39427;DHT22;25938;48.470;1.486;2022-08-25T08:08:21;24.80;62.90
39427;DHT22;25938;48.470;1.486;2022-08-25T08:10:46;24.80;62.90
39427;DHT22;25938;48.470;1.486;2022-08-25T08:13:12;24.80;63.20
39427;DHT22;25938;48.470;1.486;2022-08-25T08:15:41;24.80;63.10
39427;DHT22;25938;48.470;1.486;2022-08-25T08:18:07;24.80;62.90
39427;DHT22;25938;48.470;1.486;2022-08-25T08:20:34;24.80;63.00
39427;DHT22;25938;48.470;1.486;2022-08-25T08:22:59;24.80;63.10
39427;DHT22;25938;48.470;1.486;2022-08-25T08:25:25;24.80;63.10
39427;DHT22;25938;48.470;1.486;2022-08-25T08:27:51;24.80;63.00
39427;DHT22;25938;48.470;1.486;2022-08-25T08:30:17;24.80;63.00
39427;DHT22;25938;48.470;1.486;2022-08-25T08:32:42;24.80;62.90
39427;DHT22;25938;48.470;1.486;2022-08-25T08:35:08;24.80;63.00
39427;DHT22;25938;48.470;1.486;2022-08-25T08:37:34;24.80;63.40
39427;DHT22;25938;48.470;1.486;2022-08-25T08:40:06;24.80;63.40
39427;DHT22;25938;48.470;1.486;2022-08-25T08:45:24;24.80;62.80
39427;DHT22;25938;48.470;1.486;2022-08-25T08:48:02;24.80;62.60
39427;DHT22;25938;48.470;1.486;2022-08-25T08:56:01;24.80;62.80
39427;DHT22;25938;48.470;1.486;2022-08-25T09:01:05;24.70;63.40
39427;DHT22;25938;48.470;1.486;2022-08-25T09:03:51;24.80;63.30
39427;DHT22;25938;48.470;1.486;2022-08-25T09:06:38;24.80;64.00
39427;DHT22;25938;48.470;1.486;2022-08-25T09:09:08;24.80;63.90
39427;DHT22;25938;48.470;1.486;2022-08-25T09:17:38;24.80;63.10
39427;DHT22;25938;48.470;1.486;2022-08-25T09:26:32;24.70;62.90
39427;DHT22;25938;48.470;1.486;2022-08-25T09:29:07;24.80;62.80
39427;DHT22;25938;48.470;1.486;2022-08-25T09:31:39;24.80;62.60
39427;DHT22;25938;48.470;1.486;2022-08-25T09:34:17;24.80;62.50
39427;DHT22;25938;48.470;1.486;2022-08-25T09:36:43;24.80;62.60
39427;DHT22;25938;48.470;1.486;2022-08-25T09:39:13;24.80;62.70
39427;DHT22;25938;48.470;1.486;2022-08-25T09:41:54;24.80;63.00
39427;DHT22;25938;48.470;1.486;2022-08-25T09:47:26;24.80;62.80
39427;DHT22;25938;48.470;1.486;2022-08-25T09:49:59;24.80;62.50
39427;DHT22;25938;48.470;1.486;2022-08-25T09:55:21;24.80;62.50
39427;DHT22;25938;48.470;1.486;2022-08-25T09:57:52;24.80;62.80
39427;DHT22;25938;48.470;1.486;2022-08-25T10:00:27;24.80;62.90
39427;DHT22;25938;48.470;1.486;2022-08-25T10:03:19;24.80;62.90
39427;DHT22;25938;48.470;1.486;2022-08-25T10:08:31;24.80;63.20
39427;DHT22;25938;48.470;1.486;2022-08-25T10:10:59;24.80;63.40
39427;DHT22;25938;48.470;1.486;2022-08-25T10:13:44;24.80;63.30
39427;DHT22;25938;48.470;1.486;2022-08-25T10:16:31;24.80;63.70
39427;DHT22;25938;48.470;1.486;2022-08-25T10:24:35;24.80;63.30
39427;DHT22;25938;48.470;1.486;2022-08-25T10:27:20;24.80;63.20
39427;DHT22;25938;48.470;1.486;2022-08-25T10:30:19;24.80;63.60
39427;DHT22;25938;48.470;1.486;2022-08-25T10:36:03;24.80;63.50
39427;DHT22;25938;48.470;1.486;2022-08-25T10:38:55;24.80;63.40
39427;DHT22;25938;48.470;1.486;2022-08-25T10:44:18;24.80;63.50
39427;DHT22;25938;48.470;1.486;2022-08-25T10:50:03;24.90;63.70
39427;DHT22;25938;48.470;1.486;2022-08-25T10:55:48;24.90;63.80
39427;DHT22;25938;48.470;1.486;2022-08-25T11:01:20;24.90;64.30
39427;DHT22;25938;48.470;1.486;2022-08-25T11:03:54;24.80;64.00
39427;DHT22;25938;48.470;1.486;2022-08-25T11:06:24;24.80;63.80
39427;DHT22;25938;48.470;1.486;2022-08-25T11:08:56;24.90;63.70
39427;DHT22;25938;48.470;1.486;2022-08-25T11:11:36;24.90;63.60
39427;DHT22;25938;48.470;1.486;2022-08-25T11:14:19;24.80;63.90
39427;DHT22;25938;48.470;1.486;2022-08-25T11:17:06;24.90;63.90
39427;DHT22;25938;48.470;1.486;2022-08-25T11:19:39;24.90;63.90
39427;DHT22;25938;48.470;1.486;2022-08-25T11:27:22;24.90;63.90
39427;DHT22;25938;48.470;1.486;2022-08-25T11:30:12;24.90;64.00
39427;DHT22;25938;48.470;1.486;2022-08-25T11:32:42;24.90;64.10
39427;DHT22;25938;48.470;1.486;2022-08-25T11:35:11;24.90;64.00
39427;DHT22;25938;48.470;1.486;2022-08-25T11:40:26;24.90;64.10
39427;DHT22;25938;48.470;1.486;2022-08-25T11:43:21;24.90;64.00
39427;DHT22;25938;48.470;1.486;2022-08-25T11:51:30;24.90;64.00
39427;DHT22;25938;48.470;1.486;2022-08-25T11:54:35;24.90;63.90
39427;DHT22;25938;48.470;1.486;2022-08-25T11:57:17;24.90;63.90
39427;DHT22;25938;48.470;1.486;2022-08-25T12:02:40;24.90;64.00
39427;DHT22;25938;48.470;1.486;2022-08-25T12:08:00;24.90;64.10
39427;DHT22;25938;48.470;1.486;2022-08-25T12:11:04;24.90;64.00
39427;DHT22;25938;48.470;1.486;2022-08-25T12:13:47;24.90;64.00
39427;DHT22;25938;48.470;1.486;2022-08-25T12:19:23;24.90;63.90
39427;DHT22;25938;48.470;1.486;2022-08-25T12:21:50;24.90;63.90
39427;DHT22;25938;48.470;1.486;2022-08-25T12:27:05;24.90;64.00
39427;DHT22;25938;48.470;1.486;2022-08-25T12:29:48;24.90;63.90
39427;DHT22;25938;48.470;1.486;2022-08-25T12:45:50;24.90;63.90
39427;DHT22;25938;48.470;1.486;2022-08-25T12:48:40;24.90;63.90
39427;DHT22;25938;48.470;1.486;2022-08-25T12:56:55;25.00;64.00
39427;DHT22;25938;48.470;1.486;2022-08-25T12:59:31;25.00;63.90
39427;DHT22;25938;48.470;1.486;2022-08-25T13:10:47;24.90;63.80
39427;DHT22;25938;48.470;1.486;2022-08-25T13:16:18;25.00;63.70
39427;DHT22;25938;48.470;1.486;2022-08-25T13:18:44;25.00;63.70
39427;DHT22;25938;48.470;1.486;2022-08-25T13:23:52;25.00;63.60
39427;DHT22;25938;48.470;1.486;2022-08-25T13:26:41;25.00;63.60
39427;DHT22;25938;48.470;1.486;2022-08-25T13:31:35;25.00;63.60
39427;DHT22;25938;48.470;1.486;2022-08-25T13:34:08;25.00;63.60
39427;DHT22;25938;48.470;1.486;2022-08-25T13:36:43;25.00;63.70
39427;DHT22;25938;48.470;1.486;2022-08-25T13:39:29;25.00;63.60
39427;DHT22;25938;48.470;1.486;2022-08-25T13:41:57;25.00;63.50
39427;DHT22;25938;48.470;1.486;2022-08-25T13:44:26;25.00;63.50
39427;DHT22;25938;48.470;1.486;2022-08-25T13:47:12;25.00;63.50
39427;DHT22;25938;48.470;1.486;2022-08-25T13:49:40;25.00;63.50
39427;DHT22;25938;48.470;1.486;2022-08-25T13:52:07;25.10;64.30
39427;DHT22;25938;48.470;1.486;2022-08-25T13:54:41;25.10;63.70
39427;DHT22;25938;48.470;1.486;2022-08-25T13:57:20;25.00;63.60
39427;DHT22;25938;48.470;1.486;2022-08-25T13:59:50;25.00;63.60
39427;DHT22;25938;48.470;1.486;2022-08-25T14:02:49;25.00;63.50
39427;DHT22;25938;48.470;1.486;2022-08-25T14:05:27;25.00;63.40
39427;DHT22;25938;48.470;1.486;2022-08-25T14:07:55;25.10;63.40
39427;DHT22;25938;48.470;1.486;2022-08-25T14:13:31;25.10;63.50
39427;DHT22;25938;48.470;1.486;2022-08-25T14:16:08;25.10;63.40
39427;DHT22;25938;48.470;1.486;2022-08-25T14:18:34;25.10;63.40
39427;DHT22;25938;48.470;1.486;2022-08-25T14:21:07;25.10;63.40
39427;DHT22;25938;48.470;1.486;2022-08-25T14:23:35;25.00;63.40
39427;DHT22;25938;48.470;1.486;2022-08-25T14:26:01;25.10;63.40
39427;DHT22;25938;48.470;1.486;2022-08-25T14:28:28;25.10;63.50
39427;DHT22;25938;48.470;1.486;2022-08-25T14:31:18;25.10;63.50
39427;DHT22;25938;48.470;1.486;2022-08-25T14:34:03;25.10;63.60
39427;DHT22;25938;48.470;1.486;2022-08-25T14:36:30;25.10;63.70
39427;DHT22;25938;48.470;1.486;2022-08-25T14:38:56;25.20;63.80
39427;DHT22;25938;48.470;1.486;2022-08-25T14:41:23;25.20;63.80
39427;DHT22;25938;48.470;1.486;2022-08-25T14:43:49;25.20;63.70
39427;DHT22;25938;48.470;1.486;2022-08-25T14:46:19;25.20;63.70
39427;DHT22;25938;48.470;1.486;2022-08-25T14:48:48;25.20;63.70
39427;DHT22;25938;48.470;1.486;2022-08-25T14:51:16;25.20;63.70
39427;DHT22;25938;48.470;1.486;2022-08-25T14:53:42;25.20;63.50
39427;DHT22;25938;48.470;1.486;2022-08-25T14:56:08;25.20;63.50
39427;DHT22;25938;48.470;1.486;2022-08-25T14:58:34;25.20;63.60
39427;DHT22;25938;48.470;1.486;2022-08-25T15:01:00;25.20;63.60
39427;DHT22;25938;48.470;1.486;2022-08-25T15:03:33;25.20;63.50
39427;DHT22;25938;48.470;1.486;2022-08-25T15:06:00;25.20;63.60
39427;DHT22;25938;48.470;1.486;2022-08-25T15:08:26;25.20;63.50
39427;DHT22;25938;48.470;1.486;2022-08-25T15:11:10;25.20;63.50
39427;DHT22;25938;48.470;1.486;2022-08-25T15:13:37;25.20;63.50
39427;DHT22;25938;48.470;1.486;2022-08-25T15:16:03;25.20;63.50
39427;DHT22;25938;48.470;1.486;2022-08-25T15:18:29;25.20;63.60
39427;DHT22;25938;48.470;1.486;2022-08-25T15:20:55;25.20;63.80
39427;DHT22;25938;48.470;1.486;2022-08-25T15:23:21;25.20;63.70
39427;DHT22;25938;48.470;1.486;2022-08-25T15:25:48;25.20;63.80
39427;DHT22;25938;48.470;1.486;2022-08-25T15:28:15;25.20;63.90
39427;DHT22;25938;48.470;1.486;2022-08-25T15:30:41;25.20;63.90
39427;DHT22;25938;48.470;1.486;2022-08-25T15:33:06;25.20;63.90
39427;DHT22;25938;48.470;1.486;2022-08-25T15:35:33;25.20;63.70
39427;DHT22;25938;48.470;1.486;2022-08-25T15:37:59;25.20;63.80
39427;DHT22;25938;48.470;1.486;2022-08-25T15:40:26;25.20;63.80
39427;DHT22;25938;48.470;1.486;2022-08-25T15:42:52;25.20;63.70
39427;DHT22;25938;48.470;1.486;2022-08-25T15:45:18;25.20;63.60
39427;DHT22;25938;48.470;1.486;2022-08-25T15:47:44;25.20;63.70
39427;DHT22;25938;48.470;1.486;2022-08-25T15:50:16;25.20;63.70
39427;DHT22;25938;48.470;1.486;2022-08-25T15:52:43;25.20;63.70
39427;DHT22;25938;48.470;1.486;2022-08-25T15:55:10;25.20;63.70
39427;DHT22;25938;48.470;1.486;2022-08-25T15:57:35;25.20;63.70
39427;DHT22;25938;48.470;1.486;2022-08-25T16:00:06;25.20;63.80
39427;DHT22;25938;48.470;1.486;2022-08-25T16:02:34;25.20;63.90
39427;DHT22;25938;48.470;1.486;2022-08-25T16:05:00;25.20;63.90
39427;DHT22;25938;48.470;1.486;2022-08-25T16:07:26;25.20;63.80
39427;DHT22;25938;48.470;1.486;2022-08-25T16:09:55;25.20;63.90
39427;DHT22;25938;48.470;1.486;2022-08-25T16:12:22;25.20;63.90
39427;DHT22;25938;48.470;1.486;2022-08-25T16:14:49;25.20;63.80
39427;DHT22;25938;48.470;1.486;2022-08-25T16:17:15;25.20;63.80
39427;DHT22;25938;48.470;1.486;2022-08-25T16:19:41;25.20;64.30
39427;DHT22;25938;48.470;1.486;2022-08-25T16:22:06;25.20;63.60
39427;DHT22;25938;48.470;1.486;2022-08-25T16:24:32;25.20;63.80
39427;DHT22;25938;48.470;1.486;2022-08-25T16:26:59;25.20;63.70
39427;DHT22;25938;48.470;1.486;2022-08-25T16:29:41;25.20;63.70
39427;DHT22;25938;48.470;1.486;2022-08-25T16:32:08;25.20;63.70
39427;DHT22;25938;48.470;1.486;2022-08-25T16:34:34;25.30;63.80
39427;DHT22;25938;48.470;1.486;2022-08-25T16:37:00;25.30;63.80
39427;DHT22;25938;48.470;1.486;2022-08-25T16:39:26;25.30;64.00
39427;DHT22;25938;48.470;1.486;2022-08-25T16:41:52;25.30;64.00
39427;DHT22;25938;48.470;1.486;2022-08-25T16:44:19;25.30;64.10
39427;DHT22;25938;48.470;1.486;2022-08-25T16:46:46;25.30;64.10
39427;DHT22;25938;48.470;1.486;2022-08-25T16:49:13;25.30;64.10
39427;DHT22;25938;48.470;1.486;2022-08-25T16:51:39;25.30;64.00
39427;DHT22;25938;48.470;1.486;2022-08-25T16:54:07;25.40;64.10
39427;DHT22;25938;48.470;1.486;2022-08-25T16:56:52;25.30;64.10
39427;DHT22;25938;48.470;1.486;2022-08-25T16:59:18;25.30;64.00
39427;DHT22;25938;48.470;1.486;2022-08-25T17:01:43;25.30;64.00
39427;DHT22;25938;48.470;1.486;2022-08-25T17:04:10;25.30;64.20
39427;DHT22;25938;48.470;1.486;2022-08-25T17:06:38;25.40;64.50
39427;DHT22;25938;48.470;1.486;2022-08-25T17:09:05;25.30;64.70
39427;DHT22;25938;48.470;1.486;2022-08-25T17:11:34;25.30;64.70
39427;DHT22;25938;48.470;1.486;2022-08-25T17:14:02;25.40;64.90
39427;DHT22;25938;48.470;1.486;2022-08-25T17:16:31;25.40;64.90
39427;DHT22;25938;48.470;1.486;2022-08-25T17:18:58;25.40;64.90
39427;DHT22;25938;48.470;1.486;2022-08-25T17:21:26;25.40;64.90
39427;DHT22;25938;48.470;1.486;2022-08-25T17:23:54;25.30;64.70
39427;DHT22;25938;48.470;1.486;2022-08-25T17:26:21;25.40;64.80
39427;DHT22;25938;48.470;1.486;2022-08-25T17:28:46;25.40;64.70
39427;DHT22;25938;48.470;1.486;2022-08-25T17:31:13;25.40;64.70
39427;DHT22;25938;48.470;1.486;2022-08-25T17:33:39;25.40;64.70
39427;DHT22;25938;48.470;1.486;2022-08-25T17:36:06;25.40;64.80
39427;DHT22;25938;48.470;1.486;2022-08-25T17:38:32;25.40;64.70
39427;DHT22;25938;48.470;1.486;2022-08-25T17:41:01;25.40;64.70
39427;DHT22;25938;48.470;1.486;2022-08-25T17:43:28;25.40;64.80